MKY weather

Mackay Airport
Mackay, Queensland, Australia

Public forecast

Using degrees Celsius for public forecast. Weather courtesy of forecast.io.

METAR (pilot weather report)

Retrieved 2017/10/24 06:00 UTC (24 minutes ago):

YBMK 240600Z AUTO 09013KT 9999 // SCT026 27/19 Q1015

TAF (pilot weather forecast)

Forecast is more than 12 hours old.

Closest forecast is Hamilton Island Airport, 50.5 nm (93.5 km) NNW. Retrieved 2017/10/20 04:00 UTC (4 days ago):

TAF YBHM 200417Z 2004/2018 11020KT 9999 SCT025 SCT050